sensor_id;sensor_type;location;lat;lon;timestamp;pressure;altitude;pressure_sealevel;temperature;humidity
65013;BME280;51715;39.432;-77.518;2024-01-06T00:02:01;100366.43;;;2.44;32.06
65013;BME280;51715;39.432;-77.518;2024-01-06T00:04:32;100360.33;;;2.40;31.92
65013;BME280;51715;39.432;-77.518;2024-01-06T00:07:01;100356.33;;;2.44;32.14
65013;BME280;51715;39.432;-77.518;2024-01-06T00:09:29;100354.77;;;2.44;32.40
65013;BME280;51715;39.432;-77.518;2024-01-06T00:11:58;100351.16;;;2.44;32.27
65013;BME280;51715;39.432;-77.518;2024-01-06T00:14:27;100348.27;;;2.43;32.24
65013;BME280;51715;39.432;-77.518;2024-01-06T00:16:58;100345.98;;;2.35;32.17
65013;BME280;51715;39.432;-77.518;2024-01-06T00:19:27;100346.06;;;2.31;32.38
65013;BME280;51715;39.432;-77.518;2024-01-06T00:21:56;100350.35;;;2.24;32.62
65013;BME280;51715;39.432;-77.518;2024-01-06T00:24:24;100354.12;;;2.11;33.07
65013;BME280;51715;39.432;-77.518;2024-01-06T00:26:53;100359.53;;;1.91;33.39
65013;BME280;51715;39.432;-77.518;2024-01-06T00:29:21;100357.30;;;1.75;33.61
65013;BME280;51715;39.432;-77.518;2024-01-06T00:31:51;100355.25;;;2.04;33.81
65013;BME280;51715;39.432;-77.518;2024-01-06T00:34:19;100358.17;;;1.93;33.68
65013;BME280;51715;39.432;-77.518;2024-01-06T00:36:48;100358.61;;;1.90;33.81
65013;BME280;51715;39.432;-77.518;2024-01-06T00:39:16;100366.50;;;1.73;33.61
65013;BME280;51715;39.432;-77.518;2024-01-06T00:41:45;100368.99;;;2.00;33.48
65013;BME280;51715;39.432;-77.518;2024-01-06T00:44:13;100367.44;;;2.06;33.34
65013;BME280;51715;39.432;-77.518;2024-01-06T00:46:44;100369.49;;;2.09;33.29
65013;BME280;51715;39.432;-77.518;2024-01-06T00:49:14;100372.42;;;1.79;33.69
65013;BME280;51715;39.432;-77.518;2024-01-06T00:51:43;100378.14;;;1.81;33.83
65013;BME280;51715;39.432;-77.518;2024-01-06T00:54:14;100380.25;;;1.89;33.53
65013;BME280;51715;39.432;-77.518;2024-01-06T00:56:43;100374.71;;;1.97;33.27
65013;BME280;51715;39.432;-77.518;2024-01-06T00:59:15;100369.71;;;2.00;33.03
65013;BME280;51715;39.432;-77.518;2024-01-06T01:01:44;100369.59;;;2.00;32.87
65013;BME280;51715;39.432;-77.518;2024-01-06T01:04:13;100367.20;;;1.97;32.88
65013;BME280;51715;39.432;-77.518;2024-01-06T01:06:43;100365.64;;;1.98;32.92
65013;BME280;51715;39.432;-77.518;2024-01-06T01:09:12;100364.23;;;1.70;32.95
65013;BME280;51715;39.432;-77.518;2024-01-06T01:11:42;100365.02;;;1.89;33.04
65013;BME280;51715;39.432;-77.518;2024-01-06T01:14:16;100365.68;;;1.86;32.98
65013;BME280;51715;39.432;-77.518;2024-01-06T01:16:45;100357.95;;;1.82;32.97
65013;BME280;51715;39.432;-77.518;2024-01-06T01:19:14;100349.66;;;1.69;32.92
65013;BME280;51715;39.432;-77.518;2024-01-06T01:21:42;100339.48;;;1.71;32.91
65013;BME280;51715;39.432;-77.518;2024-01-06T01:24:10;100337.86;;;1.65;32.94
65013;BME280;51715;39.432;-77.518;2024-01-06T01:26:40;100340.74;;;1.65;33.03
65013;BME280;51715;39.432;-77.518;2024-01-06T01:29:09;100348.71;;;1.61;32.98
65013;BME280;51715;39.432;-77.518;2024-01-06T01:31:37;100352.37;;;1.57;33.09
65013;BME280;51715;39.432;-77.518;2024-01-06T01:34:05;100349.83;;;1.52;33.12
65013;BME280;51715;39.432;-77.518;2024-01-06T01:36:38;100356.25;;;1.52;33.30
65013;BME280;51715;39.432;-77.518;2024-01-06T01:39:07;100350.72;;;1.47;33.68
65013;BME280;51715;39.432;-77.518;2024-01-06T01:41:36;100337.39;;;1.45;33.73
65013;BME280;51715;39.432;-77.518;2024-01-06T01:44:05;100325.93;;;1.85;33.56
65013;BME280;51715;39.432;-77.518;2024-01-06T01:46:35;100321.08;;;1.50;34.06
65013;BME280;51715;39.432;-77.518;2024-01-06T01:49:03;100315.38;;;1.15;34.31
65013;BME280;51715;39.432;-77.518;2024-01-06T01:51:35;100303.78;;;1.66;34.57
65013;BME280;51715;39.432;-77.518;2024-01-06T01:54:05;100299.12;;;1.26;34.53
65013;BME280;51715;39.432;-77.518;2024-01-06T01:56:37;100289.67;;;1.48;34.64
65013;BME280;51715;39.432;-77.518;2024-01-06T01:59:12;100283.72;;;1.45;34.91
65013;BME280;51715;39.432;-77.518;2024-01-06T02:01:40;100274.18;;;1.15;34.85
65013;BME280;51715;39.432;-77.518;2024-01-06T02:04:12;100267.28;;;1.15;34.99
65013;BME280;51715;39.432;-77.518;2024-01-06T02:06:40;100266.23;;;1.69;34.63
65013;BME280;51715;39.432;-77.518;2024-01-06T02:09:08;100260.04;;;1.71;34.58
65013;BME280;51715;39.432;-77.518;2024-01-06T02:11:37;100249.77;;;1.22;34.86
65013;BME280;51715;39.432;-77.518;2024-01-06T02:14:06;100246.70;;;1.27;34.57
65013;BME280;51715;39.432;-77.518;2024-01-06T02:16:35;100236.08;;;1.59;34.47
65013;BME280;51715;39.432;-77.518;2024-01-06T02:19:07;100230.23;;;1.37;34.30
65013;BME280;51715;39.432;-77.518;2024-01-06T02:21:43;100229.83;;;1.39;34.17
65013;BME280;51715;39.432;-77.518;2024-01-06T02:24:12;100221.57;;;1.39;34.31
65013;BME280;51715;39.432;-77.518;2024-01-06T02:26:41;100218.89;;;1.74;34.81
65013;BME280;51715;39.432;-77.518;2024-01-06T02:29:09;100208.48;;;1.26;35.38
65013;BME280;51715;39.432;-77.518;2024-01-06T02:31:37;100201.53;;;1.37;35.61
65013;BME280;51715;39.432;-77.518;2024-01-06T02:34:05;100195.08;;;0.79;36.32
65013;BME280;51715;39.432;-77.518;2024-01-06T02:36:37;100191.30;;;0.91;36.12
65013;BME280;51715;39.432;-77.518;2024-01-06T02:39:06;100189.44;;;1.39;35.86
65013;BME280;51715;39.432;-77.518;2024-01-06T02:41:37;100191.09;;;1.81;35.67
65013;BME280;51715;39.432;-77.518;2024-01-06T02:44:05;100190.28;;;1.82;35.68
65013;BME280;51715;39.432;-77.518;2024-01-06T02:46:34;100190.13;;;1.79;35.69
65013;BME280;51715;39.432;-77.518;2024-01-06T02:49:02;100192.68;;;2.00;35.57
65013;BME280;51715;39.432;-77.518;2024-01-06T02:51:32;100193.17;;;1.70;35.32
65013;BME280;51715;39.432;-77.518;2024-01-06T02:54:02;100192.59;;;1.81;34.89
65013;BME280;51715;39.432;-77.518;2024-01-06T02:56:30;100187.27;;;1.90;34.66
65013;BME280;51715;39.432;-77.518;2024-01-06T02:59:00;100194.82;;;1.97;34.50
65013;BME280;51715;39.432;-77.518;2024-01-06T03:01:28;100202.49;;;2.11;34.21
65013;BME280;51715;39.432;-77.518;2024-01-06T03:03:59;100194.30;;;2.21;34.04
65013;BME280;51715;39.432;-77.518;2024-01-06T03:06:28;100182.77;;;2.26;34.21
65013;BME280;51715;39.432;-77.518;2024-01-06T03:08:57;100178.35;;;2.29;34.25
65013;BME280;51715;39.432;-77.518;2024-01-06T03:11:24;100183.29;;;2.21;34.47
65013;BME280;51715;39.432;-77.518;2024-01-06T03:13:53;100183.67;;;2.25;34.29
65013;BME280;51715;39.432;-77.518;2024-01-06T03:16:21;100186.49;;;2.23;34.10
65013;BME280;51715;39.432;-77.518;2024-01-06T03:18:49;100189.10;;;1.99;33.99
65013;BME280;51715;39.432;-77.518;2024-01-06T03:21:20;100193.29;;;2.21;33.94
65013;BME280;51715;39.432;-77.518;2024-01-06T03:23:50;100186.70;;;1.99;33.83
65013;BME280;51715;39.432;-77.518;2024-01-06T03:26:19;100195.20;;;1.97;34.09
65013;BME280;51715;39.432;-77.518;2024-01-06T03:28:49;100200.79;;;2.08;34.39
65013;BME280;51715;39.432;-77.518;2024-01-06T03:31:17;100205.47;;;2.09;34.60
65013;BME280;51715;39.432;-77.518;2024-01-06T03:33:47;100204.88;;;2.15;34.41
65013;BME280;51715;39.432;-77.518;2024-01-06T03:36:15;100208.23;;;2.18;34.33
65013;BME280;51715;39.432;-77.518;2024-01-06T03:38:43;100209.16;;;2.19;34.01
65013;BME280;51715;39.432;-77.518;2024-01-06T03:41:11;100202.59;;;2.22;33.86
65013;BME280;51715;39.432;-77.518;2024-01-06T03:43:40;100194.82;;;2.19;33.77
65013;BME280;51715;39.432;-77.518;2024-01-06T03:46:10;100188.69;;;1.95;33.85
65013;BME280;51715;39.432;-77.518;2024-01-06T03:48:38;100173.40;;;1.94;34.01
65013;BME280;51715;39.432;-77.518;2024-01-06T03:51:07;100164.51;;;1.91;34.23
65013;BME280;51715;39.432;-77.518;2024-01-06T03:53:35;100162.37;;;2.07;34.60
65013;BME280;51715;39.432;-77.518;2024-01-06T03:56:05;100168.45;;;1.87;34.80
65013;BME280;51715;39.432;-77.518;2024-01-06T03:58:33;100171.26;;;2.17;34.60
65013;BME280;51715;39.432;-77.518;2024-01-06T04:01:03;100165.76;;;2.23;34.30
65013;BME280;51715;39.432;-77.518;2024-01-06T04:03:33;100169.96;;;2.24;34.29
65013;BME280;51715;39.432;-77.518;2024-01-06T04:06:01;100175.60;;;2.21;34.16
65013;BME280;51715;39.432;-77.518;2024-01-06T04:08:30;100169.16;;;2.23;33.96
65013;BME280;51715;39.432;-77.518;2024-01-06T04:10:59;100165.58;;;2.28;33.77
65013;BME280;51715;39.432;-77.518;2024-01-06T04:13:29;100168.52;;;2.32;34.19
65013;BME280;51715;39.432;-77.518;2024-01-06T04:15:57;100180.11;;;2.23;34.75
65013;BME280;51715;39.432;-77.518;2024-01-06T04:18:26;100184.11;;;2.04;34.76
65013;BME280;51715;39.432;-77.518;2024-01-06T04:20:54;100182.94;;;2.22;34.45
65013;BME280;51715;39.432;-77.518;2024-01-06T04:23:23;100184.71;;;2.35;34.16
65013;BME280;51715;39.432;-77.518;2024-01-06T04:25:52;100189.47;;;2.46;34.03
65013;BME280;51715;39.432;-77.518;2024-01-06T04:28:20;100190.39;;;2.47;34.14
65013;BME280;51715;39.432;-77.518;2024-01-06T04:30:49;100187.80;;;2.73;34.37
65013;BME280;51715;39.432;-77.518;2024-01-06T04:33:16;100186.09;;;2.45;34.56
65013;BME280;51715;39.432;-77.518;2024-01-06T04:35:45;100183.15;;;2.36;34.46
65013;BME280;51715;39.432;-77.518;2024-01-06T04:38:13;100180.06;;;2.46;34.13
65013;BME280;51715;39.432;-77.518;2024-01-06T04:40:42;100175.97;;;2.91;34.22
65013;BME280;51715;39.432;-77.518;2024-01-06T04:43:10;100176.43;;;2.75;34.18
65013;BME280;51715;39.432;-77.518;2024-01-06T04:45:38;100175.58;;;2.59;34.05
65013;BME280;51715;39.432;-77.518;2024-01-06T04:48:07;100161.33;;;2.62;33.81
65013;BME280;51715;39.432;-77.518;2024-01-06T04:50:37;100159.81;;;2.90;33.71
65013;BME280;51715;39.432;-77.518;2024-01-06T04:53:06;100155.05;;;2.73;33.82
65013;BME280;51715;39.432;-77.518;2024-01-06T04:55:34;100154.40;;;2.72;34.24
65013;BME280;51715;39.432;-77.518;2024-01-06T04:58:03;100144.56;;;2.65;34.48
65013;BME280;51715;39.432;-77.518;2024-01-06T05:04:02;100141.24;;;2.67;33.91
65013;BME280;51715;39.432;-77.518;2024-01-06T05:06:31;100140.21;;;2.21;34.20
65013;BME280;51715;39.432;-77.518;2024-01-06T05:08:59;100142.95;;;2.29;34.03
65013;BME280;51715;39.432;-77.518;2024-01-06T05:11:27;100144.36;;;2.62;33.61
65013;BME280;51715;39.432;-77.518;2024-01-06T05:13:56;100136.38;;;2.86;33.51
65013;BME280;51715;39.432;-77.518;2024-01-06T05:16:25;100125.35;;;2.58;33.60
65013;BME280;51715;39.432;-77.518;2024-01-06T05:18:54;100123.30;;;2.59;33.85
65013;BME280;51715;39.432;-77.518;2024-01-06T05:21:22;100121.49;;;2.41;34.01
65013;BME280;51715;39.432;-77.518;2024-01-06T05:23:50;100114.03;;;1.97;34.50
65013;BME280;51715;39.432;-77.518;2024-01-06T05:26:22;100111.20;;;2.19;35.04
65013;BME280;51715;39.432;-77.518;2024-01-06T05:28:52;100111.57;;;2.00;34.91
65013;BME280;51715;39.432;-77.518;2024-01-06T05:31:20;100108.08;;;2.06;35.09
65013;BME280;51715;39.432;-77.518;2024-01-06T05:33:48;100102.74;;;1.99;35.36
65013;BME280;51715;39.432;-77.518;2024-01-06T05:36:19;100106.45;;;1.95;35.51
65013;BME280;51715;39.432;-77.518;2024-01-06T05:38:51;100105.20;;;1.73;35.56
65013;BME280;51715;39.432;-77.518;2024-01-06T05:41:20;100103.34;;;1.98;35.47
65013;BME280;51715;39.432;-77.518;2024-01-06T05:43:49;100106.10;;;1.66;35.44
65013;BME280;51715;39.432;-77.518;2024-01-06T05:46:25;100104.57;;;1.95;35.69
65013;BME280;51715;39.432;-77.518;2024-01-06T05:48:55;100101.07;;;1.96;35.52
65013;BME280;51715;39.432;-77.518;2024-01-06T05:51:25;100101.81;;;2.00;35.35
65013;BME280;51715;39.432;-77.518;2024-01-06T05:53:53;100098.63;;;2.12;35.40
65013;BME280;51715;39.432;-77.518;2024-01-06T05:56:23;100091.30;;;2.21;35.18
65013;BME280;51715;39.432;-77.518;2024-01-06T05:58:53;100088.18;;;2.26;34.90
65013;BME280;51715;39.432;-77.518;2024-01-06T06:01:22;100088.96;;;1.83;34.75
65013;BME280;51715;39.432;-77.518;2024-01-06T06:03:51;100088.38;;;2.29;34.66
65013;BME280;51715;39.432;-77.518;2024-01-06T06:06:19;100076.62;;;2.09;34.56
65013;BME280;51715;39.432;-77.518;2024-01-06T06:08:47;100079.82;;;2.23;34.80
65013;BME280;51715;39.432;-77.518;2024-01-06T06:11:15;100088.18;;;2.02;34.81
65013;BME280;51715;39.432;-77.518;2024-01-06T06:13:45;100085.63;;;2.19;34.93
65013;BME280;51715;39.432;-77.518;2024-01-06T06:16:13;100086.44;;;2.21;35.02
65013;BME280;51715;39.432;-77.518;2024-01-06T06:18:42;100083.65;;;2.23;35.01
65013;BME280;51715;39.432;-77.518;2024-01-06T06:21:10;100084.53;;;2.03;34.87
65013;BME280;51715;39.432;-77.518;2024-01-06T06:23:39;100086.48;;;2.28;34.81
65013;BME280;51715;39.432;-77.518;2024-01-06T06:26:07;100081.43;;;2.06;34.93
65013;BME280;51715;39.432;-77.518;2024-01-06T06:28:36;100076.25;;;2.07;34.82
65013;BME280;51715;39.432;-77.518;2024-01-06T06:31:04;100068.76;;;2.09;34.60
65013;BME280;51715;39.432;-77.518;2024-01-06T06:33:33;100062.82;;;2.09;34.57
65013;BME280;51715;39.432;-77.518;2024-01-06T06:36:01;100065.81;;;2.29;34.90
65013;BME280;51715;39.432;-77.518;2024-01-06T06:38:31;100074.87;;;2.07;34.92
65013;BME280;51715;39.432;-77.518;2024-01-06T06:41:00;100070.86;;;2.09;34.62
65013;BME280;51715;39.432;-77.518;2024-01-06T06:43:28;100072.27;;;2.24;34.48
65013;BME280;51715;39.432;-77.518;2024-01-06T06:45:57;100062.23;;;2.17;34.32
65013;BME280;51715;39.432;-77.518;2024-01-06T06:48:26;100063.23;;;1.98;34.71
65013;BME280;51715;39.432;-77.518;2024-01-06T06:50:55;100071.31;;;1.93;34.99
65013;BME280;51715;39.432;-77.518;2024-01-06T06:53:23;100068.28;;;1.92;35.09
65013;BME280;51715;39.432;-77.518;2024-01-06T06:55:51;100076.92;;;1.85;35.06
65013;BME280;51715;39.432;-77.518;2024-01-06T06:58:18;100082.07;;;1.74;35.06
65013;BME280;51715;39.432;-77.518;2024-01-06T07:00:48;100078.62;;;1.68;35.14
65013;BME280;51715;39.432;-77.518;2024-01-06T07:03:17;100084.79;;;1.45;35.12
65013;BME280;51715;39.432;-77.518;2024-01-06T07:05:45;100098.50;;;1.64;35.35
65013;BME280;51715;39.432;-77.518;2024-01-06T07:08:14;100100.50;;;1.62;35.20
65013;BME280;51715;39.432;-77.518;2024-01-06T07:10:43;100094.23;;;1.61;35.15
65013;BME280;51715;39.432;-77.518;2024-01-06T07:13:11;100096.75;;;1.55;35.39
65013;BME280;51715;39.432;-77.518;2024-01-06T07:15:40;100087.25;;;1.51;35.38
65013;BME280;51715;39.432;-77.518;2024-01-06T07:18:08;100078.49;;;1.44;35.40
65013;BME280;51715;39.432;-77.518;2024-01-06T07:20:36;100090.62;;;1.60;35.96
65013;BME280;51715;39.432;-77.518;2024-01-06T07:23:05;100082.94;;;1.27;35.96
65013;BME280;51715;39.432;-77.518;2024-01-06T07:25:33;100078.13;;;1.45;36.04
65013;BME280;51715;39.432;-77.518;2024-01-06T07:28:00;100076.25;;;1.24;35.81
65013;BME280;51715;39.432;-77.518;2024-01-06T07:30:28;100068.16;;;1.22;35.72
65013;BME280;51715;39.432;-77.518;2024-01-06T07:32:58;100065.67;;;1.41;35.93
65013;BME280;51715;39.432;-77.518;2024-01-06T07:35:26;100066.82;;;1.17;35.95
65013;BME280;51715;39.432;-77.518;2024-01-06T07:37:54;100066.71;;;1.70;35.77
65013;BME280;51715;39.432;-77.518;2024-01-06T07:40:22;100064.15;;;1.71;35.78
65013;BME280;51715;39.432;-77.518;2024-01-06T07:42:50;100064.63;;;1.53;35.72
65013;BME280;51715;39.432;-77.518;2024-01-06T07:45:18;100061.35;;;1.04;35.96
65013;BME280;51715;39.432;-77.518;2024-01-06T07:47:47;100061.50;;;1.60;35.92
65013;BME280;51715;39.432;-77.518;2024-01-06T07:50:16;100057.56;;;1.15;36.05
65013;BME280;51715;39.432;-77.518;2024-01-06T07:52:43;100052.43;;;0.84;36.47
65013;BME280;51715;39.432;-77.518;2024-01-06T07:55:12;100051.09;;;1.02;36.49
65013;BME280;51715;39.432;-77.518;2024-01-06T07:57:40;100056.36;;;1.07;37.09
65013;BME280;51715;39.432;-77.518;2024-01-06T08:00:13;100056.38;;;1.05;37.02
65013;BME280;51715;39.432;-77.518;2024-01-06T08:02:41;100054.29;;;1.23;36.81
65013;BME280;51715;39.432;-77.518;2024-01-06T08:05:09;100055.27;;;1.38;36.46
65013;BME280;51715;39.432;-77.518;2024-01-06T08:07:37;100053.61;;;1.47;36.19
65013;BME280;51715;39.432;-77.518;2024-01-06T08:10:06;100047.51;;;1.50;36.15
65013;BME280;51715;39.432;-77.518;2024-01-06T08:12:34;100041.46;;;1.80;36.11
65013;BME280;51715;39.432;-77.518;2024-01-06T08:15:03;100034.79;;;1.63;35.98
65013;BME280;51715;39.432;-77.518;2024-01-06T08:17:33;100031.61;;;1.82;35.79
65013;BME280;51715;39.432;-77.518;2024-01-06T08:20:01;100031.46;;;1.78;35.76
65013;BME280;51715;39.432;-77.518;2024-01-06T08:22:29;100026.88;;;1.64;35.84
65013;BME280;51715;39.432;-77.518;2024-01-06T08:24:59;100022.03;;;1.95;35.88
65013;BME280;51715;39.432;-77.518;2024-01-06T08:27:29;100024.89;;;2.02;35.77
65013;BME280;51715;39.432;-77.518;2024-01-06T08:29:59;100026.55;;;1.99;35.97
65013;BME280;51715;39.432;-77.518;2024-01-06T08:32:29;100013.24;;;1.98;35.88
65013;BME280;51715;39.432;-77.518;2024-01-06T08:34:57;100002.24;;;2.11;35.58
65013;BME280;51715;39.432;-77.518;2024-01-06T08:37:25;100007.63;;;2.21;35.52
65013;BME280;51715;39.432;-77.518;2024-01-06T08:39:53;100011.30;;;2.20;35.52
65013;BME280;51715;39.432;-77.518;2024-01-06T08:42:21;100008.00;;;2.21;35.57
65013;BME280;51715;39.432;-77.518;2024-01-06T08:44:51;100013.31;;;2.26;35.65
65013;BME280;51715;39.432;-77.518;2024-01-06T08:47:19;100002.59;;;2.08;35.60
65013;BME280;51715;39.432;-77.518;2024-01-06T08:49:47;99993.24;;;2.37;35.38
65013;BME280;51715;39.432;-77.518;2024-01-06T08:52:15;99977.50;;;2.23;35.22
65013;BME280;51715;39.432;-77.518;2024-01-06T08:54:43;99960.30;;;2.29;35.14
65013;BME280;51715;39.432;-77.518;2024-01-06T08:57:11;99944.02;;;2.34;35.07
65013;BME280;51715;39.432;-77.518;2024-01-06T08:59:40;99927.21;;;2.43;35.02
65013;BME280;51715;39.432;-77.518;2024-01-06T09:02:09;99900.94;;;2.69;34.98
65013;BME280;51715;39.432;-77.518;2024-01-06T09:04:37;99878.51;;;2.29;35.03
65013;BME280;51715;39.432;-77.518;2024-01-06T09:07:05;99857.23;;;2.58;35.01
65013;BME280;51715;39.432;-77.518;2024-01-06T09:09:34;99851.62;;;2.40;34.54
65013;BME280;51715;39.432;-77.518;2024-01-06T09:12:04;99834.78;;;2.36;34.70
65013;BME280;51715;39.432;-77.518;2024-01-06T09:14:32;99829.66;;;1.63;35.25
65013;BME280;51715;39.432;-77.518;2024-01-06T09:17:01;99818.89;;;2.00;35.17
65013;BME280;51715;39.432;-77.518;2024-01-06T09:19:32;99811.70;;;2.43;34.51
65013;BME280;51715;39.432;-77.518;2024-01-06T09:22:01;99815.23;;;2.43;34.50
65013;BME280;51715;39.432;-77.518;2024-01-06T09:24:28;99817.71;;;2.60;34.23
65013;BME280;51715;39.432;-77.518;2024-01-06T09:26:59;99827.16;;;2.68;33.82
65013;BME280;51715;39.432;-77.518;2024-01-06T09:29:28;99819.71;;;1.55;35.25
65013;BME280;51715;39.432;-77.518;2024-01-06T09:31:56;99823.88;;;1.55;35.03
65013;BME280;51715;39.432;-77.518;2024-01-06T09:34:25;99829.77;;;2.00;35.03
65013;BME280;51715;39.432;-77.518;2024-01-06T09:36:54;99840.22;;;1.77;35.42
65013;BME280;51715;39.432;-77.518;2024-01-06T09:39:21;99841.89;;;2.39;34.83
65013;BME280;51715;39.432;-77.518;2024-01-06T09:41:49;99863.98;;;2.46;34.20
65013;BME280;51715;39.432;-77.518;2024-01-06T09:44:19;99878.92;;;2.89;33.69
65013;BME280;51715;39.432;-77.518;2024-01-06T09:46:50;99867.49;;;2.97;33.21
65013;BME280;51715;39.432;-77.518;2024-01-06T09:49:23;99867.64;;;3.14;33.18
65013;BME280;51715;39.432;-77.518;2024-01-06T09:51:53;99868.90;;;3.43;33.11
65013;BME280;51715;39.432;-77.518;2024-01-06T09:54:25;99870.22;;;3.46;33.16
65013;BME280;51715;39.432;-77.518;2024-01-06T09:56:53;99862.39;;;3.20;33.15
65013;BME280;51715;39.432;-77.518;2024-01-06T09:59:22;99852.30;;;3.41;33.35
65013;BME280;51715;39.432;-77.518;2024-01-06T10:01:50;99847.76;;;3.42;33.44
65013;BME280;51715;39.432;-77.518;2024-01-06T10:04:20;99848.03;;;3.30;33.53
65013;BME280;51715;39.432;-77.518;2024-01-06T10:06:48;99846.07;;;3.32;33.71
65013;BME280;51715;39.432;-77.518;2024-01-06T10:09:16;99840.06;;;3.16;33.58
65013;BME280;51715;39.432;-77.518;2024-01-06T10:11:45;99843.21;;;3.20;33.51
65013;BME280;51715;39.432;-77.518;2024-01-06T10:14:13;99845.50;;;3.49;33.59
65013;BME280;51715;39.432;-77.518;2024-01-06T10:16:41;99848.75;;;3.26;33.74
65013;BME280;51715;39.432;-77.518;2024-01-06T10:19:09;99860.19;;;3.22;33.83
65013;BME280;51715;39.432;-77.518;2024-01-06T10:21:37;99867.31;;;3.39;33.80
65013;BME280;51715;39.432;-77.518;2024-01-06T10:24:08;99869.49;;;3.23;33.56
65013;BME280;51715;39.432;-77.518;2024-01-06T10:26:36;99867.15;;;3.59;33.63
65013;BME280;51715;39.432;-77.518;2024-01-06T10:29:04;99866.12;;;3.66;33.67
65013;BME280;51715;39.432;-77.518;2024-01-06T10:31:32;99868.31;;;3.63;33.75
65013;BME280;51715;39.432;-77.518;2024-01-06T10:34:00;99869.06;;;3.47;33.71
65013;BME280;51715;39.432;-77.518;2024-01-06T10:36:29;99879.13;;;3.59;33.82
65013;BME280;51715;39.432;-77.518;2024-01-06T10:38:57;99877.78;;;3.68;33.26
65013;BME280;51715;39.432;-77.518;2024-01-06T10:41:26;99872.10;;;3.19;33.36
65013;BME280;51715;39.432;-77.518;2024-01-06T10:43:55;99872.64;;;2.90;33.68
65013;BME280;51715;39.432;-77.518;2024-01-06T10:46:25;99878.91;;;3.43;33.49
65013;BME280;51715;39.432;-77.518;2024-01-06T10:48:56;99879.77;;;3.24;33.01
65013;BME280;51715;39.432;-77.518;2024-01-06T10:51:27;99875.62;;;3.58;32.86
65013;BME280;51715;39.432;-77.518;2024-01-06T10:54:00;99878.79;;;3.30;32.60
65013;BME280;51715;39.432;-77.518;2024-01-06T10:56:29;99890.87;;;3.50;32.38
65013;BME280;51715;39.432;-77.518;2024-01-06T10:58:59;99888.58;;;3.80;32.20
65013;BME280;51715;39.432;-77.518;2024-01-06T11:01:30;99884.11;;;3.45;32.03
65013;BME280;51715;39.432;-77.518;2024-01-06T11:04:02;99879.20;;;3.26;32.24
65013;BME280;51715;39.432;-77.518;2024-01-06T11:06:31;99881.65;;;3.40;32.61
65013;BME280;51715;39.432;-77.518;2024-01-06T11:09:06;99878.57;;;3.15;32.69
65013;BME280;51715;39.432;-77.518;2024-01-06T11:11:40;99884.26;;;3.52;32.74
65013;BME280;51715;39.432;-77.518;2024-01-06T11:14:27;99888.10;;;3.51;31.99
65013;BME280;51715;39.432;-77.518;2024-01-06T11:16:55;99877.49;;;3.59;31.89
65013;BME280;51715;39.432;-77.518;2024-01-06T11:19:46;99865.57;;;3.66;31.49
65013;BME280;51715;39.432;-77.518;2024-01-06T11:22:25;99854.70;;;3.68;31.26
65013;BME280;51715;39.432;-77.518;2024-01-06T11:24:54;99856.48;;;3.15;31.66
65013;BME280;51715;39.432;-77.518;2024-01-06T11:27:24;99845.09;;;3.23;31.71
65013;BME280;51715;39.432;-77.518;2024-01-06T11:29:53;99825.41;;;3.47;31.48
65013;BME280;51715;39.432;-77.518;2024-01-06T11:32:27;99823.01;;;3.62;31.51
65013;BME280;51715;39.432;-77.518;2024-01-06T11:35:05;99830.45;;;3.09;32.18
65013;BME280;51715;39.432;-77.518;2024-01-06T11:37:37;99831.66;;;2.81;32.20
65013;BME280;51715;39.432;-77.518;2024-01-06T11:40:31;99841.36;;;3.14;32.49
65013;BME280;51715;39.432;-77.518;2024-01-06T11:43:03;99850.52;;;3.26;32.15
65013;BME280;51715;39.432;-77.518;2024-01-06T11:45:31;99846.74;;;3.54;31.94
65013;BME280;51715;39.432;-77.518;2024-01-06T11:48:00;99840.03;;;3.38;32.02
65013;BME280;51715;39.432;-77.518;2024-01-06T11:50:30;99821.02;;;2.71;32.16
65013;BME280;51715;39.432;-77.518;2024-01-06T11:52:59;99804.52;;;3.32;32.16
65013;BME280;51715;39.432;-77.518;2024-01-06T11:55:28;99786.72;;;3.53;31.91
65013;BME280;51715;39.432;-77.518;2024-01-06T11:57:56;99784.59;;;3.28;32.03
65013;BME280;51715;39.432;-77.518;2024-01-06T12:00:24;99809.40;;;2.80;32.18
65013;BME280;51715;39.432;-77.518;2024-01-06T12:02:57;99815.57;;;2.66;32.42
65013;BME280;51715;39.432;-77.518;2024-01-06T12:05:25;99815.13;;;3.67;31.81
65013;BME280;51715;39.432;-77.518;2024-01-06T12:07:55;99830.60;;;3.77;31.61
65013;BME280;51715;39.432;-77.518;2024-01-06T12:10:24;99834.25;;;3.48;32.01
65013;BME280;51715;39.432;-77.518;2024-01-06T12:12:59;99823.92;;;3.46;33.01
65013;BME280;51715;39.432;-77.518;2024-01-06T12:15:29;99832.92;;;3.16;31.77
65013;BME280;51715;39.432;-77.518;2024-01-06T12:17:58;99831.83;;;3.75;32.27
65013;BME280;51715;39.432;-77.518;2024-01-06T12:20:28;99825.37;;;3.72;31.99
65013;BME280;51715;39.432;-77.518;2024-01-06T12:22:57;99820.94;;;3.10;32.07
65013;BME280;51715;39.432;-77.518;2024-01-06T12:25:26;99812.16;;;3.35;32.13
65013;BME280;51715;39.432;-77.518;2024-01-06T12:27:55;99799.46;;;3.93;31.61
65013;BME280;51715;39.432;-77.518;2024-01-06T12:30:23;99779.07;;;3.59;31.77
65013;BME280;51715;39.432;-77.518;2024-01-06T12:32:51;99767.11;;;3.20;32.61
65013;BME280;51715;39.432;-77.518;2024-01-06T12:35:21;99759.62;;;3.58;31.88
65013;BME280;51715;39.432;-77.518;2024-01-06T12:37:52;99737.77;;;3.53;31.58
65013;BME280;51715;39.432;-77.518;2024-01-06T12:40:20;99735.12;;;2.80;33.20
65013;BME280;51715;39.432;-77.518;2024-01-06T12:42:50;99739.53;;;2.03;33.72
65013;BME280;51715;39.432;-77.518;2024-01-06T12:45:19;99740.62;;;3.14;33.30
65013;BME280;51715;39.432;-77.518;2024-01-06T12:47:48;99726.58;;;3.53;32.13
65013;BME280;51715;39.432;-77.518;2024-01-06T12:50:16;99729.61;;;3.51;32.46
65013;BME280;51715;39.432;-77.518;2024-01-06T12:52:44;99728.40;;;3.24;32.92
65013;BME280;51715;39.432;-77.518;2024-01-06T12:55:12;99702.59;;;3.34;32.58
65013;BME280;51715;39.432;-77.518;2024-01-06T12:57:40;99722.55;;;0.69;36.70